ilmateenistus.ee keskkonnaagentuur.ee
EETN Tallinn
FTEO31 EETN 220500
TAF EETN 220530Z 2206/2306 30020G32KT 9999 BKN030 TEMPO 2206/2212
    BKN015 SCT020CB PROB40 TEMPO 2206/2212 4000 SHSNRA BECMG 2212/2214
    34016G26KT BECMG 2220/2222 32012KT PROB40 TEMPO 2220/2224 SCT020CB=

METAR EETN 220820Z 32018G32KT 9999 BKN026 02/M02 Q1004 R08/12//95 NOSIG=
Tallinn
EEKA Kärdla
FCEO32 EETN 220400 AAA
TAF AMD EEKA 220800Z 2205/2211 CNL=

METAR EEKA 220750Z 32028KT 9999 FEW033 BKN046 04/M03 Q1007=
Kärdla
EEKE Kuressaare
FCEO32 EETN 220600
TAF EEKE 220600Z 2207/2213 32016KT 9999 SCT030 TEMPO 2207/2213
    33020G32KT SCT015CB BKN025 PROB40 TEMPO 2207/2210 4000 SHRASN=

METAR EEKE 220750Z 33013KT 290V010 9999 VCSH SCT037CB BKN045 04/M03 Q1009 R17/190095=
Kuressaare
EEPU Pärnu
METAR EEPU 220750Z 30012KT 9999 BKN049 03/M03 Q1005=
Pärnu
EETU Tartu
METAR EETU 220820Z AUTO 30008KT 9999 OVC051/// 01/M02 Q1003=
Tartu
EEEI Ämari
SPECI EEEI 220807Z 30017G28KT 9999 SCT031 03/M03 Q1005 R24/090095=
Ämari